createdAt,value
2023-02-27T00:02:10.306Z,27.14
2023-02-27T00:04:39.921Z,26.49
2023-02-27T00:07:10.351Z,25.76
2023-02-27T00:09:41.718Z,25.10
2023-02-27T00:12:11.755Z,24.49
2023-02-27T00:14:41.450Z,24.00
2023-02-27T00:17:11.048Z,23.61
2023-02-27T00:19:40.731Z,23.31
2023-02-27T00:22:10.364Z,23.04
2023-02-27T00:24:40.038Z,22.80
2023-02-27T00:27:09.761Z,22.63
2023-02-27T00:29:39.359Z,22.49
2023-02-27T00:32:09.169Z,22.43
2023-02-27T00:34:38.818Z,22.39
2023-02-27T00:37:08.565Z,22.38
2023-02-27T00:39:38.219Z,22.43
2023-02-27T00:42:07.851Z,22.62
2023-02-27T00:44:37.539Z,23.34
2023-02-27T00:47:07.247Z,24.23
2023-02-27T00:49:36.927Z,24.87
2023-02-27T00:52:06.972Z,25.31
2023-02-27T00:54:36.633Z,25.74
2023-02-27T00:57:06.338Z,26.03
2023-02-27T00:59:35.965Z,26.26
2023-02-27T01:02:05.521Z,26.45
2023-02-27T01:04:35.264Z,26.69
2023-02-27T01:07:05.533Z,26.77
2023-02-27T01:09:35.142Z,26.98
2023-02-27T01:12:04.843Z,27.05
2023-02-27T01:14:34.430Z,27.17
2023-02-27T01:17:04.157Z,27.21
2023-02-27T01:19:34.013Z,27.27
2023-02-27T01:22:03.681Z,27.38
2023-02-27T01:24:33.420Z,27.41
2023-02-27T01:27:03.132Z,27.47
2023-02-27T01:29:32.913Z,27.54
2023-02-27T01:32:02.615Z,27.50
2023-02-27T01:34:34.160Z,27.56
2023-02-27T01:37:04.398Z,27.65
2023-02-27T01:39:34.624Z,27.69
2023-02-27T01:42:04.538Z,27.71
2023-02-27T01:44:36.341Z,27.72
2023-02-27T01:47:06.696Z,27.79
2023-02-27T01:49:36.448Z,27.81
2023-02-27T01:52:11.043Z,27.86
2023-02-27T01:54:43.297Z,27.89
2023-02-27T01:57:13.005Z,27.90
2023-02-27T01:59:43.347Z,27.99
2023-02-27T02:02:20.095Z,27.97
2023-02-27T02:04:49.995Z,28.00
2023-02-27T02:07:21.041Z,28.01
2023-02-27T02:09:58.438Z,28.01
2023-02-27T02:12:33.838Z,28.10
2023-02-27T02:15:03.428Z,28.13
2023-02-27T02:17:32.998Z,28.18
2023-02-27T02:20:10.345Z,28.17
2023-02-27T02:22:58.208Z,28.26
2023-02-27T02:25:39.758Z,28.31
2023-02-27T02:28:35.109Z,28.28
2023-02-27T02:31:26.500Z,28.46
2023-02-27T02:34:22.492Z,28.43
2023-02-27T02:37:06.313Z,28.39
2023-02-27T02:40:00.578Z,28.41
2023-02-27T02:42:40.282Z,28.47
2023-02-27T02:45:17.740Z,28.47
2023-02-27T02:48:05.952Z,28.55
2023-02-27T02:50:47.278Z,28.54
2023-02-27T02:53:36.055Z,28.57
2023-02-27T02:56:31.695Z,28.60
2023-02-27T02:59:13.441Z,28.62
2023-02-27T03:01:47.501Z,28.69
2023-02-27T03:04:24.090Z,28.63
2023-02-27T03:07:15.464Z,28.60
2023-02-27T03:10:11.442Z,28.74
2023-02-27T03:12:43.811Z,29.01
2023-02-27T03:15:25.409Z,29.06
2023-02-27T03:18:07.020Z,29.11
2023-02-27T03:20:44.852Z,29.18
2023-02-27T03:23:22.477Z,29.19
2023-02-27T03:25:52.426Z,29.21
2023-02-27T03:28:23.846Z,29.25
2023-02-27T03:31:03.317Z,29.24
2023-02-27T03:33:49.079Z,29.28
2023-02-27T03:36:29.143Z,28.86
2023-02-27T03:39:26.560Z,28.21
2023-02-27T03:42:24.141Z,27.48
2023-02-27T03:45:03.158Z,26.99
2023-02-27T03:47:32.756Z,26.58
2023-02-27T03:50:02.435Z,26.27
2023-02-27T03:52:32.296Z,26.05
2023-02-27T03:55:18.579Z,25.81
2023-02-27T03:57:48.678Z,25.66
2023-02-27T04:00:20.892Z,25.49
2023-02-27T04:02:52.767Z,25.36
2023-02-27T04:05:22.610Z,25.26
2023-02-27T04:08:22.834Z,25.15
2023-02-27T04:11:17.326Z,25.06
2023-02-27T04:14:19.222Z,24.96
2023-02-27T04:16:48.994Z,24.87
2023-02-27T04:19:48.436Z,24.77
2023-02-27T04:22:38.939Z,24.71
2023-02-27T04:25:22.413Z,24.67
2023-02-27T04:28:20.959Z,24.61
2023-02-27T04:31:00.082Z,24.58
2023-02-27T04:33:45.044Z,24.48
2023-02-27T04:36:51.111Z,24.37
2023-02-27T04:40:06.994Z,24.39
2023-02-27T04:42:39.821Z,24.36
2023-02-27T04:45:12.301Z,24.32
2023-02-27T04:48:05.653Z,24.35
2023-02-27T04:50:42.014Z,24.34
2023-02-27T04:53:23.059Z,24.27
2023-02-27T04:55:54.995Z,24.23
2023-02-27T04:58:36.947Z,24.25
2023-02-27T05:01:12.301Z,24.19
2023-02-27T05:03:44.862Z,24.14
2023-02-27T05:06:14.483Z,24.15
2023-02-27T05:08:59.214Z,24.11
2023-02-27T05:11:30.781Z,24.10
2023-02-27T05:14:06.599Z,24.08
2023-02-27T05:16:46.951Z,24.09
2023-02-27T05:19:16.892Z,24.13
2023-02-27T05:22:28.657Z,24.10
2023-02-27T05:25:03.909Z,24.11
2023-02-27T05:27:36.207Z,24.07
2023-02-27T05:30:19.747Z,24.07
2023-02-27T05:32:55.909Z,24.11
2023-02-27T05:35:45.313Z,24.13
2023-02-27T05:38:23.466Z,24.10
2023-02-27T05:40:59.177Z,24.11
2023-02-27T05:43:58.768Z,24.08
2023-02-27T05:46:34.060Z,24.04
2023-02-27T05:49:08.201Z,23.98
2023-02-27T05:51:37.770Z,23.96
2023-02-27T05:54:18.341Z,23.90
2023-02-27T05:56:48.159Z,23.89
2023-02-27T05:59:40.798Z,23.88
2023-02-27T06:02:10.464Z,23.87
2023-02-27T06:04:40.232Z,23.77
2023-02-27T06:07:09.860Z,23.68
2023-02-27T06:09:39.844Z,23.62
2023-02-27T06:12:09.493Z,23.61
2023-02-27T06:14:39.185Z,23.81
2023-02-27T06:17:08.792Z,24.37
2023-02-27T06:19:38.418Z,24.80
2023-02-27T06:22:08.076Z,25.42
2023-02-27T06:24:37.797Z,26.26
2023-02-27T06:27:07.431Z,26.85
2023-02-27T06:29:37.245Z,26.98
2023-02-27T06:32:07.123Z,27.06
2023-02-27T06:34:36.755Z,27.14
2023-02-27T06:37:06.319Z,27.21
2023-02-27T06:39:35.985Z,27.19
2023-02-27T06:42:05.886Z,27.30
2023-02-27T06:44:35.509Z,27.63
2023-02-27T06:47:05.112Z,27.75
2023-02-27T06:49:34.845Z,27.87
2023-02-27T06:52:04.488Z,27.88
2023-02-27T06:54:34.097Z,27.85
2023-02-27T06:57:03.776Z,27.87
2023-02-27T06:59:33.390Z,27.88
2023-02-27T07:02:03.004Z,27.78
2023-02-27T07:04:32.649Z,27.75
2023-02-27T07:07:36.130Z,27.80
2023-02-27T07:09:51.880Z,27.75
2023-02-27T07:12:21.426Z,27.75
2023-02-27T07:14:51.024Z,27.77
2023-02-27T07:17:20.561Z,27.77
2023-02-27T07:19:50.147Z,27.78
2023-02-27T07:22:19.810Z,27.76
2023-02-27T07:24:49.406Z,27.83
2023-02-27T07:27:18.958Z,27.89
2023-02-27T07:29:48.540Z,27.90
2023-02-27T07:32:18.381Z,27.86
2023-02-27T07:34:48.204Z,27.93
2023-02-27T07:37:17.772Z,27.93
2023-02-27T07:39:47.386Z,27.95
2023-02-27T07:42:16.927Z,28.00
2023-02-27T07:44:46.537Z,27.99
2023-02-27T07:47:16.182Z,28.02
2023-02-27T07:49:46.046Z,28.08
2023-02-27T07:52:15.740Z,28.12
2023-02-27T07:54:45.388Z,28.10
2023-02-27T07:57:15.402Z,28.07
2023-02-27T07:59:45.106Z,28.02
2023-02-27T08:02:14.724Z,27.97
2023-02-27T08:04:44.362Z,27.50
2023-02-27T08:07:13.996Z,26.97
2023-02-27T08:09:43.522Z,26.45
2023-02-27T08:12:13.455Z,26.06
2023-02-27T08:14:43.012Z,25.69
2023-02-27T08:17:12.582Z,25.33
2023-02-27T08:19:42.627Z,25.06
2023-02-27T08:22:13.494Z,24.85
2023-02-27T08:24:43.195Z,24.65
2023-02-27T08:27:12.761Z,24.47
2023-02-27T08:29:42.771Z,24.35
2023-02-27T08:32:12.450Z,24.20
2023-02-27T08:34:42.106Z,24.07
2023-02-27T08:37:29.570Z,23.95
2023-02-27T08:39:59.260Z,23.85
2023-02-27T08:42:28.938Z,23.74
2023-02-27T08:44:58.546Z,23.66
2023-02-27T08:47:28.253Z,23.57
2023-02-27T08:49:58.282Z,23.49
2023-02-27T08:52:27.900Z,23.43
2023-02-27T08:54:57.484Z,23.35
2023-02-27T08:57:27.112Z,23.29
2023-02-27T08:59:56.694Z,23.26
2023-02-27T09:02:27.823Z,23.20
2023-02-27T09:04:57.924Z,23.16
2023-02-27T09:07:27.576Z,23.12
2023-02-27T09:09:57.198Z,23.09
2023-02-27T09:12:26.792Z,23.07
2023-02-27T09:14:56.421Z,23.04
2023-02-27T09:17:25.985Z,23.02
2023-02-27T09:19:57.297Z,22.99
2023-02-27T09:22:27.263Z,22.93
2023-02-27T09:24:57.531Z,22.90
2023-02-27T09:27:27.615Z,22.87
2023-02-27T09:29:57.929Z,22.84
2023-02-27T09:32:28.022Z,22.84
2023-02-27T09:34:57.689Z,22.78
2023-02-27T09:37:27.484Z,22.75
2023-02-27T09:39:57.739Z,22.74
2023-02-27T09:42:29.311Z,22.70
2023-02-27T09:44:59.827Z,22.69
2023-02-27T09:47:32.909Z,22.64
2023-02-27T09:50:08.858Z,22.62
2023-02-27T09:52:39.212Z,22.60
2023-02-27T09:55:14.411Z,22.56
2023-02-27T09:57:49.414Z,22.52
2023-02-27T10:00:46.567Z,22.54
2023-02-27T10:03:39.334Z,22.48
2023-02-27T10:06:21.253Z,22.46
2023-02-27T10:08:50.780Z,22.43
2023-02-27T10:11:25.940Z,22.41
2023-02-27T10:14:16.749Z,22.40
2023-02-27T10:16:46.511Z,22.38
2023-02-27T10:19:22.020Z,22.35
2023-02-27T10:21:52.448Z,22.34
2023-02-27T10:24:29.851Z,22.32
2023-02-27T10:27:00.885Z,22.31
2023-02-27T10:29:31.778Z,22.30
2023-02-27T10:32:13.822Z,22.27
2023-02-27T10:34:44.462Z,22.24
2023-02-27T10:37:16.735Z,22.23
2023-02-27T10:40:06.493Z,22.23
2023-02-27T10:42:41.576Z,22.21
2023-02-27T10:45:20.224Z,22.17
2023-02-27T10:47:49.815Z,22.17
2023-02-27T10:50:33.402Z,22.16
2023-02-27T10:53:04.586Z,22.16
2023-02-27T10:55:39.873Z,22.12
2023-02-27T10:58:09.577Z,22.12
2023-02-27T11:00:55.663Z,22.10
2023-02-27T11:03:34.780Z,22.08
2023-02-27T11:06:07.098Z,22.08
2023-02-27T11:08:37.048Z,22.07
2023-02-27T11:11:06.898Z,22.06
2023-02-27T11:13:41.270Z,22.05
2023-02-27T11:16:15.199Z,22.05
2023-02-27T11:18:49.405Z,22.03
2023-02-27T11:21:24.697Z,22.03
2023-02-27T11:24:04.831Z,22.00
2023-02-27T11:26:39.652Z,21.99
2023-02-27T11:29:16.647Z,21.92
2023-02-27T11:32:01.445Z,21.94
2023-02-27T11:34:39.819Z,21.90
2023-02-27T11:37:20.770Z,21.89
2023-02-27T11:40:03.375Z,21.88
2023-02-27T11:42:34.532Z,21.88
2023-02-27T11:46:05.217Z,21.86
2023-02-27T11:48:30.933Z,21.84
2023-02-27T11:51:12.667Z,21.83
2023-02-27T11:54:01.190Z,21.82
2023-02-27T11:56:47.291Z,21.79
2023-02-27T11:59:25.252Z,21.79
2023-02-27T12:02:02.303Z,21.79
2023-02-27T12:05:01.726Z,21.77
2023-02-27T12:07:40.948Z,21.76
2023-02-27T12:10:59.331Z,21.77
2023-02-27T12:13:40.528Z,21.72
2023-02-27T12:16:23.337Z,21.72
2023-02-27T12:19:01.558Z,21.72
2023-02-27T12:21:36.393Z,21.72
2023-02-27T12:24:28.088Z,21.74
2023-02-27T12:27:30.129Z,21.70
2023-02-27T12:30:20.187Z,21.67
2023-02-27T12:33:11.981Z,21.68
2023-02-27T12:35:41.580Z,21.67
2023-02-27T12:38:12.375Z,21.66
2023-02-27T12:40:53.892Z,21.66
2023-02-27T12:43:40.106Z,21.62
2023-02-27T12:46:27.764Z,21.62
2023-02-27T12:49:06.345Z,21.60
2023-02-27T12:51:53.837Z,21.62
2023-02-27T12:54:46.580Z,21.61
2023-02-27T12:57:20.769Z,21.58
2023-02-27T13:00:12.740Z,21.57
2023-02-27T13:02:42.458Z,21.54
2023-02-27T13:05:33.876Z,21.56
2023-02-27T13:08:16.574Z,21.53
2023-02-27T13:11:04.537Z,21.52
2023-02-27T13:13:58.893Z,21.51
2023-02-27T13:16:58.177Z,21.52
2023-02-27T13:19:36.796Z,21.51
2023-02-27T13:22:12.223Z,21.51
2023-02-27T13:24:48.313Z,21.49
2023-02-27T13:27:38.383Z,21.47
2023-02-27T13:30:15.778Z,21.49
2023-02-27T13:32:45.441Z,21.50
2023-02-27T13:35:19.753Z,21.48
2023-02-27T13:38:03.706Z,21.49
2023-02-27T13:40:36.636Z,21.44
2023-02-27T13:43:27.085Z,21.45
2023-02-27T13:46:01.272Z,21.43
2023-02-27T13:48:36.462Z,21.44
2023-02-27T13:51:06.199Z,21.42
2023-02-27T13:53:35.832Z,21.40
2023-02-27T13:56:24.828Z,21.40
2023-02-27T13:58:55.633Z,21.40
2023-02-27T14:01:29.823Z,21.40
2023-02-27T14:04:01.936Z,21.39
2023-02-27T14:06:31.733Z,21.37
2023-02-27T14:09:14.478Z,21.37
2023-02-27T14:11:52.016Z,21.36
2023-02-27T14:14:42.930Z,21.36
2023-02-27T14:17:17.167Z,21.33
2023-02-27T14:19:49.652Z,21.36
2023-02-27T14:22:19.857Z,21.33
2023-02-27T14:25:07.981Z,21.32
2023-02-27T14:27:46.770Z,21.31
2023-02-27T14:30:37.746Z,21.33
2023-02-27T14:33:30.008Z,21.32
2023-02-27T14:36:10.177Z,21.29
2023-02-27T14:38:40.105Z,21.31
2023-02-27T14:41:16.372Z,21.30
2023-02-27T14:43:47.464Z,21.27
2023-02-27T14:46:30.339Z,21.29
2023-02-27T14:49:04.971Z,21.25
2023-02-27T14:51:38.217Z,21.26
2023-02-27T14:54:22.251Z,21.26
2023-02-27T14:57:01.497Z,21.24
2023-02-27T14:59:32.009Z,21.23
2023-02-27T15:02:05.732Z,21.24
2023-02-27T15:04:35.550Z,21.22
2023-02-27T15:07:05.707Z,21.23
2023-02-27T15:09:38.336Z,21.21
2023-02-27T15:12:08.161Z,21.19
2023-02-27T15:14:41.476Z,21.20
2023-02-27T15:17:22.039Z,21.20
2023-02-27T15:19:56.372Z,21.21
2023-02-27T15:22:39.085Z,21.19
2023-02-27T15:25:09.740Z,21.19
2023-02-27T15:27:39.359Z,21.18
2023-02-27T15:30:09.856Z,21.16
2023-02-27T15:32:42.903Z,21.16
2023-02-27T15:35:19.744Z,21.15
2023-02-27T15:37:58.042Z,21.14
2023-02-27T15:40:29.407Z,21.13
2023-02-27T15:42:59.338Z,21.12
2023-02-27T15:45:32.023Z,21.12
2023-02-27T15:48:01.580Z,21.12
2023-02-27T15:50:44.357Z,21.13
2023-02-27T15:53:18.698Z,21.12
2023-02-27T15:56:11.010Z,21.10
2023-02-27T15:58:46.984Z,21.08
2023-02-27T16:01:21.275Z,21.08
2023-02-27T16:03:51.267Z,21.09
2023-02-27T16:06:40.984Z,21.06
2023-02-27T16:09:22.238Z,21.04
2023-02-27T16:11:52.101Z,21.04
2023-02-27T16:14:46.261Z,21.04
2023-02-27T16:17:34.662Z,21.03
2023-02-27T16:20:23.126Z,21.02
2023-02-27T16:23:16.048Z,21.02
2023-02-27T16:25:56.244Z,21.02
2023-02-27T16:28:25.766Z,21.00
2023-02-27T16:30:55.956Z,20.99
2023-02-27T16:33:25.686Z,21.01
2023-02-27T16:36:04.672Z,21.01
2023-02-27T16:38:34.392Z,21.01
2023-02-27T16:41:04.045Z,21.00
2023-02-27T16:43:33.818Z,20.99
2023-02-27T16:46:03.557Z,20.99
2023-02-27T16:48:33.254Z,20.98
2023-02-27T16:51:02.830Z,20.97
2023-02-27T16:53:32.392Z,20.97
2023-02-27T16:56:03.699Z,20.98
2023-02-27T16:58:33.527Z,20.96
2023-02-27T17:01:03.116Z,20.97
2023-02-27T17:03:32.909Z,20.95
2023-02-27T17:06:04.898Z,20.95
2023-02-27T17:08:34.526Z,20.92
2023-02-27T17:11:05.609Z,20.94
2023-02-27T17:13:36.473Z,20.92
2023-02-27T17:16:06.723Z,20.93
2023-02-27T17:18:36.348Z,20.94
2023-02-27T17:21:06.301Z,20.90
2023-02-27T17:23:36.803Z,20.89
2023-02-27T17:26:07.122Z,20.88
2023-02-27T17:28:36.747Z,20.88
2023-02-27T17:31:24.371Z,20.89
2023-02-27T17:33:55.284Z,20.87
2023-02-27T17:36:25.065Z,20.86
2023-02-27T17:39:03.311Z,20.84
2023-02-27T17:41:33.348Z,20.85
2023-02-27T17:44:03.310Z,20.85
2023-02-27T17:46:33.256Z,20.85
2023-02-27T17:49:03.349Z,20.84
2023-02-27T17:51:33.239Z,20.83
2023-02-27T17:54:06.936Z,20.83
2023-02-27T17:56:37.015Z,20.83
2023-02-27T17:59:07.358Z,20.82
2023-02-27T18:01:38.239Z,20.81
2023-02-27T18:04:09.468Z,20.81
2023-02-27T18:06:39.446Z,20.80
2023-02-27T18:09:09.216Z,20.78
2023-02-27T18:11:41.948Z,20.79
2023-02-27T18:14:11.520Z,20.77
2023-02-27T18:16:41.187Z,20.79
2023-02-27T18:19:10.888Z,20.79
2023-02-27T18:21:40.622Z,20.79
2023-02-27T18:24:10.876Z,20.76
2023-02-27T18:26:40.532Z,20.74
2023-02-27T18:29:11.214Z,20.73
2023-02-27T18:31:43.014Z,20.75
2023-02-27T18:34:12.860Z,20.74
2023-02-27T18:36:42.455Z,20.75
2023-02-27T18:39:12.080Z,20.73
2023-02-27T18:41:41.651Z,20.73
2023-02-27T18:44:12.170Z,20.72
2023-02-27T18:46:41.900Z,20.69
2023-02-27T18:49:11.644Z,20.70
2023-02-27T18:51:41.236Z,20.71
2023-02-27T18:54:13.554Z,20.69
2023-02-27T18:56:43.452Z,20.71
2023-02-27T18:59:13.573Z,20.70
2023-02-27T19:01:43.118Z,20.69
2023-02-27T19:04:12.774Z,20.68
2023-02-27T19:06:43.661Z,20.69
2023-02-27T19:09:15.002Z,20.65
2023-02-27T19:11:44.853Z,20.67
2023-02-27T19:14:15.205Z,20.67
2023-02-27T19:16:45.746Z,20.66
2023-02-27T19:19:15.328Z,20.65
2023-02-27T19:21:45.183Z,20.65
2023-02-27T19:24:15.017Z,20.65
2023-02-27T19:26:44.663Z,20.63
2023-02-27T19:29:14.291Z,20.62
2023-02-27T19:31:44.305Z,20.63
2023-02-27T19:34:14.505Z,20.61
2023-02-27T19:36:44.169Z,20.62
2023-02-27T19:39:13.827Z,20.61
2023-02-27T19:41:43.692Z,20.61
2023-02-27T19:44:13.743Z,20.60
2023-02-27T19:46:44.994Z,20.61
2023-02-27T19:49:14.573Z,20.59
2023-02-27T19:51:44.372Z,20.56
2023-02-27T19:54:15.426Z,20.57
2023-02-27T19:56:45.144Z,20.55
2023-02-27T19:59:17.534Z,20.54
2023-02-27T20:01:47.135Z,20.56
2023-02-27T20:04:19.128Z,20.54
2023-02-27T20:06:51.050Z,20.54
2023-02-27T20:09:21.906Z,20.54
2023-02-27T20:11:54.039Z,20.50
2023-02-27T20:14:23.820Z,20.49
2023-02-27T20:16:54.485Z,20.52
2023-02-27T20:19:25.018Z,20.51
2023-02-27T20:21:55.785Z,20.51
2023-02-27T20:24:26.084Z,20.48
2023-02-27T20:26:55.891Z,20.48
2023-02-27T20:29:26.395Z,20.46
2023-02-27T20:31:57.182Z,20.47
2023-02-27T20:34:27.882Z,20.48
2023-02-27T20:36:57.698Z,20.48
2023-02-27T20:39:27.553Z,20.47
2023-02-27T20:41:57.217Z,20.47
2023-02-27T20:44:26.886Z,20.46
2023-02-27T20:46:56.873Z,20.45
2023-02-27T20:49:27.513Z,20.46
2023-02-27T20:51:57.228Z,20.45
2023-02-27T20:54:26.869Z,20.44
2023-02-27T20:56:56.528Z,20.44
2023-02-27T20:59:27.043Z,20.41
2023-02-27T21:01:56.769Z,20.39
2023-02-27T21:04:48.577Z,20.39
2023-02-27T21:07:20.182Z,20.38
2023-02-27T21:09:49.917Z,20.75
2023-02-27T21:12:19.769Z,21.26
2023-02-27T21:14:50.817Z,21.80
2023-02-27T21:17:20.408Z,22.35
2023-02-27T21:19:50.040Z,23.03
2023-02-27T21:22:19.732Z,23.78
2023-02-27T21:24:51.654Z,24.14
2023-02-27T21:27:22.934Z,24.38
2023-02-27T21:29:52.628Z,24.55
2023-02-27T21:32:22.217Z,24.73
2023-02-27T21:34:51.964Z,24.94
2023-02-27T21:37:21.574Z,24.78
2023-02-27T21:39:55.598Z,25.04
2023-02-27T21:42:25.678Z,25.55
2023-02-27T21:44:55.236Z,25.86
2023-02-27T21:47:24.822Z,26.23
2023-02-27T21:49:54.524Z,26.34
2023-02-27T21:52:24.156Z,26.47
2023-02-27T21:54:55.641Z,26.54
2023-02-27T21:57:25.323Z,26.61
2023-02-27T21:59:55.093Z,26.70
2023-02-27T22:02:24.711Z,26.71
2023-02-27T22:04:54.323Z,26.98
2023-02-27T22:07:23.931Z,27.11
2023-02-27T22:09:53.582Z,27.17
2023-02-27T22:12:23.775Z,27.15
2023-02-27T22:14:53.377Z,27.17
2023-02-27T22:17:23.004Z,27.11
2023-02-27T22:19:52.785Z,27.13
2023-02-27T22:22:22.434Z,27.22
2023-02-27T22:24:52.022Z,27.22
2023-02-27T22:27:21.651Z,27.34
2023-02-27T22:29:51.244Z,27.30
2023-02-27T22:32:21.176Z,27.31
2023-02-27T22:34:51.355Z,27.31
2023-02-27T22:37:21.398Z,27.31
2023-02-27T22:39:51.067Z,27.45
2023-02-27T22:42:20.709Z,27.58
2023-02-27T22:44:50.281Z,27.62
2023-02-27T22:47:19.856Z,27.74
2023-02-27T22:49:52.009Z,27.77
2023-02-27T22:52:21.772Z,27.81
2023-02-27T22:54:51.733Z,27.81
2023-02-27T22:57:21.645Z,27.83
2023-02-27T22:59:54.295Z,27.91
2023-02-27T23:02:23.891Z,27.94
2023-02-27T23:04:53.498Z,28.02
2023-02-27T23:07:23.105Z,28.03
2023-02-27T23:09:52.775Z,28.14
2023-02-27T23:12:22.348Z,28.10
2023-02-27T23:14:52.070Z,28.17
2023-02-27T23:17:21.703Z,28.20
2023-02-27T23:19:51.420Z,28.26
2023-02-27T23:22:21.094Z,28.33
2023-02-27T23:24:50.695Z,28.36
2023-02-27T23:27:26.132Z,28.36
2023-02-27T23:29:56.671Z,28.45
2023-02-27T23:32:26.278Z,28.48
2023-02-27T23:34:55.871Z,28.77
2023-02-27T23:37:25.555Z,28.80
2023-02-27T23:39:55.154Z,28.72
2023-02-27T23:42:24.770Z,28.81
2023-02-27T23:45:09.354Z,28.80
2023-02-27T23:47:53.353Z,28.97
2023-02-27T23:50:27.224Z,28.95
2023-02-27T23:52:57.718Z,28.90
2023-02-27T23:55:28.100Z,28.88
2023-02-27T23:57:58.723Z,28.84
